PWSweather.com
Personal Weather Stations
Station Observations
IFRIESLA82
NoordbergumNL

NoordbergumNL

Lat: 53.223961, Lon: 5.999605

Elevation: 6

Station Type: Davis Vantage pro 2

Latest ConditionsUpdated 8:47:34 AM GMT+01:01 Thursday, Jul 18, 2019
Currently Today's Max Today's Min Today's Average
Temperature 66.4°F19.1°C 66.4°F19.1°C 58.5°F14.7°C 60.4°F15.8°C
Dew Point 59.7°F15.4°C 59.7°F15.4°C 54.9°F12.7°C 56.2°F13.4°C
Winds 4.0 mph SE6.4 kmh SE 6.0 mph -9.7 kmh - - 2.7 mph 4.3 kmh
Wind Gusts 14.0 mph22.5 kmh 14.0 mph22.5 kmh - -
Humidity 79% 89% 79% 86%
Pressure 29.83 in1010.2 mb 29.90 in1012.5 mb 29.83 in1010.2 mb -
Hour Temp Dew Point Humidity Winds Wind Gusts Pressure Precip Precip Rate Daily Precip Total
08:47 AM 66.4°F19.1°C 59.7°F15.4°C 79% 4.0 mph SE6.4 kmh SE 14.0 mph22.5 kmh 29.83 in1010.2 mb 0.00 in0.0 mm 0.00 in0.0 mm 0.00 in0.0 mm
08:32 AM 65.7°F18.7°C 59.4°F15.2°C 80% 4.0 mph SE6.4 kmh SE 12.1 mph19.5 kmh 29.83 in1010.2 mb 0.00 in0.0 mm 0.00 in0.0 mm 0.00 in0.0 mm
08:17 AM 65.3°F18.5°C 59.0°F15.0°C 80% 4.0 mph SE6.4 kmh SE 12.1 mph19.5 kmh 29.83 in1010.2 mb 0.00 in0.0 mm 0.00 in0.0 mm 0.00 in0.0 mm
08:02 AM 64.8°F18.2°C 58.8°F14.9°C 81% 6.0 mph SSE9.7 kmh SSE 13.0 mph20.9 kmh 29.83 in1010.2 mb 0.00 in0.0 mm 0.00 in0.0 mm 0.00 in0.0 mm
07:47 AM 63.9°F17.7°C 58.3°F14.6°C 82% 4.0 mph SSE6.4 kmh SSE 9.0 mph14.5 kmh 29.83 in1010.2 mb 0.00 in0.0 mm 0.00 in0.0 mm 0.00 in0.0 mm
07:32 AM 63.3°F17.4°C 58.1°F14.5°C 83% 4.0 mph S6.4 kmh S 10.1 mph16.3 kmh 29.83 in1010.2 mb 0.00 in0.0 mm 0.00 in0.0 mm 0.00 in0.0 mm
07:17 AM 62.4°F16.9°C 57.6°F14.2°C 84% 4.0 mph SSW6.4 kmh SSW 8.9 mph14.3 kmh 29.83 in1010.2 mb 0.00 in0.0 mm 0.00 in0.0 mm 0.00 in0.0 mm
07:02 AM 61.3°F16.3°C 56.8°F13.8°C 85% 4.0 mph SSE6.4 kmh SSE 8.1 mph13.0 kmh 29.83 in1010.2 mb 0.00 in0.0 mm 0.00 in0.0 mm 0.00 in0.0 mm
06:47 AM 61.0°F16.1°C 56.8°F13.8°C 86% 4.0 mph SSE6.4 kmh SSE 11.0 mph17.7 kmh 29.83 in1010.2 mb 0.00 in0.0 mm 0.00 in0.0 mm 0.00 in0.0 mm
06:32 AM 60.4°F15.8°C 56.3°F13.5°C 86% 2.9 mph SSE4.7 kmh SSE 7.0 mph11.3 kmh 29.83 in1010.2 mb 0.00 in0.0 mm 0.00 in0.0 mm 0.00 in0.0 mm
06:17 AM 60.1°F15.6°C 55.9°F13.3°C 86% 2.9 mph SE4.7 kmh SE 8.1 mph13.0 kmh 29.84 in1010.5 mb 0.00 in0.0 mm 0.00 in0.0 mm 0.00 in0.0 mm
06:02 AM 59.5°F15.3°C 55.6°F13.1°C 87% 2.0 mph SSE3.2 kmh SSE 7.0 mph11.3 kmh 29.84 in1010.5 mb 0.00 in0.0 mm 0.00 in0.0 mm 0.00 in0.0 mm
05:47 AM 59.2°F15.1°C 55.4°F13.0°C 87% 2.0 mph SSE3.2 kmh SSE 6.0 mph9.7 kmh 29.84 in1010.5 mb 0.00 in0.0 mm 0.00 in0.0 mm 0.00 in0.0 mm
05:32 AM 58.8°F14.9°C 55.0°F12.8°C 87% 2.0 mph SE3.2 kmh SE 5.0 mph8.0 kmh 29.84 in1010.5 mb 0.00 in0.0 mm 0.00 in0.0 mm 0.00 in0.0 mm
05:17 AM 58.6°F14.8°C 55.0°F12.8°C 88% 2.0 mph ESE3.2 kmh ESE 4.9 mph7.9 kmh 29.84 in1010.5 mb 0.00 in0.0 mm 0.00 in0.0 mm 0.00 in0.0 mm
05:02 AM 58.5°F14.7°C 54.9°F12.7°C 88% 2.0 mph SE3.2 kmh SE 5.0 mph8.0 kmh 29.84 in1010.5 mb 0.00 in0.0 mm 0.00 in0.0 mm 0.00 in0.0 mm
04:47 AM 58.5°F14.7°C 54.9°F12.7°C 88% 2.0 mph ESE3.2 kmh ESE 6.0 mph9.7 kmh 29.84 in1010.5 mb 0.00 in0.0 mm 0.00 in0.0 mm 0.00 in0.0 mm
04:32 AM 58.5°F14.7°C 54.9°F12.7°C 88% 2.0 mph SSE3.2 kmh SSE 4.9 mph7.9 kmh 29.85 in1010.8 mb 0.00 in0.0 mm 0.00 in0.0 mm 0.00 in0.0 mm
04:17 AM 58.5°F14.7°C 54.9°F12.7°C 88% 2.0 mph ESE3.2 kmh ESE 7.0 mph11.3 kmh 29.84 in1010.5 mb 0.00 in0.0 mm 0.00 in0.0 mm 0.00 in0.0 mm
04:02 AM 58.6°F14.8°C 55.0°F12.8°C 88% 2.0 mph SE3.2 kmh SE 7.0 mph11.3 kmh 29.85 in1010.8 mb 0.00 in0.0 mm 0.00 in0.0 mm 0.00 in0.0 mm
03:47 AM 58.6°F14.8°C 55.0°F12.8°C 88% 2.0 mph ESE3.2 kmh ESE 6.0 mph9.7 kmh 29.85 in1010.8 mb 0.00 in0.0 mm 0.00 in0.0 mm 0.00 in0.0 mm
03:32 AM 58.5°F14.7°C 54.9°F12.7°C 88% 2.0 mph SE3.2 kmh SE 6.0 mph9.7 kmh 29.85 in1010.8 mb 0.00 in0.0 mm 0.00 in0.0 mm 0.00 in0.0 mm
03:17 AM 58.6°F14.8°C 55.0°F12.8°C 88% 2.0 mph E3.2 kmh E 6.0 mph9.7 kmh 29.85 in1010.8 mb 0.00 in0.0 mm 0.00 in0.0 mm 0.00 in0.0 mm
03:02 AM 58.8°F14.9°C 55.2°F12.9°C 88% 2.0 mph E3.2 kmh E 5.0 mph8.0 kmh 29.86 in1011.2 mb 0.00 in0.0 mm 0.00 in0.0 mm 0.00 in0.0 mm
02:47 AM 58.8°F14.9°C 55.2°F12.9°C 88% 2.0 mph ESE3.2 kmh ESE 7.0 mph11.3 kmh 29.86 in1011.2 mb 0.00 in0.0 mm 0.00 in0.0 mm 0.00 in0.0 mm
02:32 AM 59.2°F15.1°C 55.6°F13.1°C 88% 2.0 mph SE3.2 kmh SE 6.0 mph9.7 kmh 29.87 in1011.5 mb 0.00 in0.0 mm 0.00 in0.0 mm 0.00 in0.0 mm
02:17 AM 59.2°F15.1°C 55.6°F13.1°C 88% 2.0 mph SE3.2 kmh SE 6.9 mph11.1 kmh 29.87 in1011.5 mb 0.00 in0.0 mm 0.00 in0.0 mm 0.00 in0.0 mm
02:02 AM 59.2°F15.1°C 55.6°F13.1°C 88% 2.0 mph SE3.2 kmh SE 6.0 mph9.7 kmh 29.88 in1011.9 mb 0.00 in0.0 mm 0.00 in0.0 mm 0.00 in0.0 mm
01:47 AM 59.2°F15.1°C 55.9°F13.3°C 89% 2.0 mph E3.2 kmh E 6.0 mph9.7 kmh 29.88 in1011.9 mb 0.00 in0.0 mm 0.00 in0.0 mm 0.00 in0.0 mm
01:32 AM 59.4°F15.2°C 56.1°F13.4°C 89% 2.0 mph ESE3.2 kmh ESE 6.0 mph9.7 kmh 29.88 in1011.9 mb 0.00 in0.0 mm 0.00 in0.0 mm 0.00 in0.0 mm
01:17 AM 59.5°F15.3°C 56.3°F13.5°C 89% 2.9 mph E4.7 kmh E 6.0 mph9.7 kmh 29.89 in1012.2 mb 0.00 in0.0 mm 0.00 in0.0 mm 0.00 in0.0 mm
01:02 AM 59.5°F15.3°C 55.9°F13.3°C 88% 2.9 mph E4.7 kmh E 6.9 mph11.1 kmh 29.89 in1012.2 mb 0.00 in0.0 mm 0.00 in0.0 mm 0.00 in0.0 mm
12:47 AM 59.9°F15.5°C 56.3°F13.5°C 88% 2.9 mph ESE4.7 kmh ESE 6.9 mph11.1 kmh 29.89 in1012.2 mb 0.00 in0.0 mm 0.00 in0.0 mm 0.00 in0.0 mm
12:32 AM 60.3°F15.7°C 56.7°F13.7°C 88% 2.0 mph E3.2 kmh E 4.0 mph6.4 kmh 29.89 in1012.2 mb 0.00 in0.0 mm 0.00 in0.0 mm 0.00 in0.0 mm
12:17 AM 60.4°F15.8°C 56.5°F13.6°C 87% 0.9 mph E1.4 kmh E 4.0 mph6.4 kmh 29.90 in1012.5 mb 0.00 in0.0 mm 0.00 in0.0 mm 0.00 in0.0 mm
12:02 AM 60.6°F15.9°C 56.7°F13.7°C 87% 2.0 mph E3.2 kmh E 6.0 mph9.7 kmh 29.90 in1012.5 mb 0.00 in0.0 mm 0.00 in0.0 mm 0.00 in0.0 mm